createdAt,value
2022-10-27T00:00:29.910Z,10.97
2022-10-27T00:03:00.931Z,10.91
2022-10-27T00:05:35.361Z,10.86
2022-10-27T00:08:06.128Z,10.88
2022-10-27T00:10:35.613Z,10.88
2022-10-27T00:13:07.844Z,10.84
2022-10-27T00:15:37.641Z,10.82
2022-10-27T00:18:11.394Z,10.78
2022-10-27T00:20:41.823Z,10.72
2022-10-27T00:23:11.640Z,10.71
2022-10-27T00:25:40.293Z,10.74
2022-10-27T00:28:09.999Z,10.69
2022-10-27T00:30:39.119Z,10.68
2022-10-27T00:33:07.998Z,10.68
2022-10-27T00:35:38.762Z,10.70
2022-10-27T00:38:11.004Z,10.69
2022-10-27T00:40:41.167Z,10.64
2022-10-27T00:43:29.835Z,10.69
2022-10-27T00:46:06.124Z,10.68
2022-10-27T00:48:36.566Z,10.65
2022-10-27T00:51:07.315Z,10.63
2022-10-27T00:53:38.732Z,10.56
2022-10-27T00:56:09.035Z,10.55
2022-10-27T00:58:39.119Z,10.56
2022-10-27T01:01:09.117Z,10.50
2022-10-27T01:03:38.549Z,10.48
2022-10-27T01:06:09.062Z,10.44
2022-10-27T01:08:41.409Z,10.40
2022-10-27T01:11:11.426Z,10.45
2022-10-27T01:13:41.908Z,10.40
2022-10-27T01:16:25.406Z,10.33
2022-10-27T01:19:13.908Z,10.31
2022-10-27T01:22:07.203Z,10.28
2022-10-27T01:25:25.223Z,10.26
2022-10-27T01:28:35.027Z,10.21
2022-10-27T01:31:11.564Z,10.19
2022-10-27T01:33:50.140Z,10.19
2022-10-27T01:36:28.764Z,10.20
2022-10-27T01:39:06.501Z,10.15
2022-10-27T01:41:45.471Z,10.17
2022-10-27T01:44:22.923Z,10.20
2022-10-27T01:46:55.324Z,10.13
2022-10-27T01:49:24.174Z,10.17
2022-10-27T01:51:53.550Z,10.20
2022-10-27T01:54:23.423Z,10.15
2022-10-27T01:57:14.435Z,10.15
2022-10-27T02:00:05.023Z,10.12
2022-10-27T02:02:48.932Z,10.02
2022-10-27T02:05:29.366Z,9.97
2022-10-27T02:08:12.257Z,9.98
2022-10-27T02:10:49.414Z,10.00
2022-10-27T02:13:20.047Z,9.95
2022-10-27T02:15:54.735Z,9.89
2022-10-27T02:18:30.579Z,9.86
2022-10-27T02:21:06.589Z,9.93
2022-10-27T02:23:37.367Z,9.92
2022-10-27T02:26:16.167Z,9.87
2022-10-27T02:28:52.702Z,9.88
2022-10-27T02:31:29.876Z,9.85
2022-10-27T02:34:01.287Z,9.82
2022-10-27T02:36:31.094Z,9.83
2022-10-27T02:39:00.315Z,9.80
2022-10-27T02:41:29.023Z,9.81
2022-10-27T02:43:57.683Z,9.77
2022-10-27T02:46:27.661Z,9.75
2022-10-27T02:48:57.630Z,9.73
2022-10-27T02:51:28.079Z,9.66
2022-10-27T02:53:56.958Z,9.70
2022-10-27T02:56:25.545Z,9.75
2022-10-27T02:58:54.232Z,9.73
2022-10-27T03:01:23.269Z,9.72
2022-10-27T03:03:52.558Z,9.74
2022-10-27T03:06:22.049Z,9.76
2022-10-27T03:08:52.848Z,9.76
2022-10-27T03:11:22.768Z,9.69
2022-10-27T03:13:51.770Z,9.69
2022-10-27T03:16:20.727Z,9.69
2022-10-27T03:18:49.333Z,9.63
2022-10-27T03:21:19.293Z,9.58
2022-10-27T03:23:48.472Z,9.55
2022-10-27T03:26:18.693Z,9.51
2022-10-27T03:28:48.115Z,9.54
2022-10-27T03:31:17.418Z,9.57
2022-10-27T03:33:46.305Z,9.59
2022-10-27T03:36:15.132Z,9.59
2022-10-27T03:38:43.730Z,9.59
2022-10-27T03:41:12.265Z,9.57
2022-10-27T03:43:42.640Z,9.52
2022-10-27T03:46:12.123Z,9.51
2022-10-27T03:48:40.622Z,9.53
2022-10-27T03:51:11.124Z,9.53
2022-10-27T03:53:40.079Z,9.54
2022-10-27T03:56:10.105Z,9.51
2022-10-27T03:58:41.005Z,9.49
2022-10-27T04:01:12.089Z,9.43
2022-10-27T04:03:41.234Z,9.36
2022-10-27T04:06:09.818Z,9.38
2022-10-27T04:08:42.593Z,9.41
2022-10-27T04:11:11.689Z,9.42
2022-10-27T04:13:42.931Z,9.41
2022-10-27T04:16:11.501Z,9.41
2022-10-27T04:18:40.562Z,9.37
2022-10-27T04:21:09.613Z,9.36
2022-10-27T04:23:38.117Z,9.32
2022-10-27T04:26:06.893Z,9.25
2022-10-27T04:28:36.158Z,9.17
2022-10-27T04:31:06.586Z,9.11
2022-10-27T04:33:36.201Z,9.05
2022-10-27T04:36:07.684Z,9.03
2022-10-27T04:38:38.244Z,9.05
2022-10-27T04:41:07.308Z,9.03
2022-10-27T04:43:36.297Z,9.04
2022-10-27T04:46:06.924Z,9.02
2022-10-27T04:48:36.432Z,9.01
2022-10-27T04:51:05.136Z,8.98
2022-10-27T04:53:34.785Z,8.80
2022-10-27T04:56:04.129Z,8.86
2022-10-27T04:58:33.103Z,8.86
2022-10-27T05:01:09.585Z,8.83
2022-10-27T05:03:39.685Z,8.80
2022-10-27T05:06:12.306Z,8.77
2022-10-27T05:08:42.148Z,8.78
2022-10-27T05:11:16.330Z,8.76
2022-10-27T05:13:46.549Z,8.77
2022-10-27T05:16:16.792Z,8.72
2022-10-27T05:18:46.541Z,8.68
2022-10-27T05:21:16.553Z,8.61
2022-10-27T05:23:47.805Z,8.62
2022-10-27T05:26:20.272Z,8.64
2022-10-27T05:28:50.391Z,8.65
2022-10-27T05:31:20.762Z,8.66
2022-10-27T05:33:49.779Z,8.66
2022-10-27T05:36:18.932Z,8.62
2022-10-27T05:38:50.051Z,8.54
2022-10-27T05:41:23.610Z,8.49
2022-10-27T05:43:52.257Z,8.47
2022-10-27T05:46:23.005Z,8.51
2022-10-27T05:48:52.090Z,8.54
2022-10-27T05:51:21.727Z,8.55
2022-10-27T05:53:53.331Z,8.56
2022-10-27T05:56:22.018Z,8.50
2022-10-27T05:58:51.383Z,8.53
2022-10-27T06:01:22.427Z,8.57
2022-10-27T06:03:54.133Z,8.62
2022-10-27T06:06:27.128Z,8.56
2022-10-27T06:08:56.802Z,8.57
2022-10-27T06:11:26.163Z,8.61
2022-10-27T06:13:55.453Z,8.62
2022-10-27T06:16:29.665Z,8.62
2022-10-27T06:18:59.018Z,8.64
2022-10-27T06:21:28.413Z,8.69
2022-10-27T06:23:57.347Z,8.71
2022-10-27T06:26:27.098Z,8.74
2022-10-27T06:28:56.692Z,8.79
2022-10-27T06:31:27.221Z,8.75
2022-10-27T06:33:56.028Z,8.78
2022-10-27T06:36:25.754Z,8.75
2022-10-27T06:38:57.470Z,8.75
2022-10-27T06:41:27.036Z,8.77
2022-10-27T06:43:55.784Z,8.78
2022-10-27T06:46:26.915Z,8.80
2022-10-27T06:48:57.262Z,8.84
2022-10-27T06:51:26.501Z,8.87
2022-10-27T06:53:55.635Z,8.92
2022-10-27T06:56:25.224Z,8.93
2022-10-27T06:58:54.397Z,8.93
2022-10-27T07:01:23.666Z,8.97
2022-10-27T07:03:53.192Z,8.97
2022-10-27T07:06:26.444Z,9.02
2022-10-27T07:11:26.910Z,9.04
2022-10-27T07:13:58.245Z,9.07
2022-10-27T07:16:29.225Z,9.04
2022-10-27T07:19:00.297Z,9.03
2022-10-27T07:21:31.460Z,9.05
2022-10-27T07:24:00.462Z,9.09
2022-10-27T07:26:29.266Z,9.09
2022-10-27T07:28:58.101Z,9.14
2022-10-27T07:31:30.173Z,9.17
2022-10-27T07:33:59.791Z,9.20
2022-10-27T07:36:30.519Z,9.26
2022-10-27T07:38:59.624Z,9.29
2022-10-27T07:41:28.644Z,9.34
2022-10-27T07:43:57.417Z,9.36
2022-10-27T07:46:26.732Z,9.41
2022-10-27T07:48:55.996Z,9.40
2022-10-27T07:51:25.017Z,9.44
2022-10-27T07:53:57.925Z,9.44
2022-10-27T07:56:28.119Z,9.49
2022-10-27T07:58:56.779Z,9.48
2022-10-27T08:01:25.518Z,9.51
2022-10-27T08:03:55.619Z,9.53
2022-10-27T08:06:24.326Z,9.58
2022-10-27T08:08:55.123Z,9.63
2022-10-27T08:11:24.074Z,9.67
2022-10-27T08:13:54.005Z,9.70
2022-10-27T08:16:23.336Z,9.75
2022-10-27T08:18:51.878Z,9.81
2022-10-27T08:21:20.512Z,9.89
2022-10-27T08:23:49.322Z,9.95
2022-10-27T08:26:19.317Z,10.00
2022-10-27T08:28:49.884Z,10.07
2022-10-27T08:31:19.005Z,10.12
2022-10-27T08:33:47.513Z,10.17
2022-10-27T08:36:17.412Z,10.22
2022-10-27T08:38:45.981Z,10.29
2022-10-27T08:41:41.515Z,10.37
2022-10-27T08:44:24.643Z,10.43
2022-10-27T08:46:56.689Z,10.49
2022-10-27T08:49:42.200Z,10.56
2022-10-27T08:52:23.758Z,10.62
2022-10-27T08:55:00.278Z,10.68
2022-10-27T08:57:34.731Z,10.74
2022-10-27T09:00:03.643Z,10.80
2022-10-27T09:02:58.439Z,10.88
2022-10-27T09:05:58.422Z,10.94
2022-10-27T09:08:38.844Z,10.98
2022-10-27T09:11:20.880Z,11.04
2022-10-27T09:14:13.018Z,11.10
2022-10-27T09:16:48.298Z,11.14
2022-10-27T09:19:26.315Z,11.20
2022-10-27T09:21:55.691Z,11.24
2022-10-27T09:24:31.659Z,11.30
2022-10-27T09:27:01.302Z,11.34
2022-10-27T09:29:36.979Z,11.39
2022-10-27T09:32:18.605Z,11.45
2022-10-27T09:34:56.226Z,11.50
2022-10-27T09:37:25.714Z,11.54
2022-10-27T09:39:54.877Z,11.57
2022-10-27T09:42:23.652Z,11.61
2022-10-27T09:44:59.562Z,11.65
2022-10-27T09:47:31.586Z,11.68
2022-10-27T09:50:03.097Z,11.73
2022-10-27T09:52:38.600Z,11.76
2022-10-27T09:55:08.649Z,11.79
2022-10-27T09:57:41.634Z,11.82
2022-10-27T10:00:29.217Z,11.86
2022-10-27T10:03:04.883Z,11.91
2022-10-27T10:05:37.551Z,11.95
2022-10-27T10:08:25.699Z,11.98
2022-10-27T10:10:59.652Z,12.04
2022-10-27T10:13:30.155Z,12.08
2022-10-27T10:16:13.252Z,12.11
2022-10-27T10:18:48.111Z,12.15
2022-10-27T10:21:17.223Z,12.20
2022-10-27T10:23:54.435Z,12.24
2022-10-27T10:26:27.648Z,12.29
2022-10-27T10:29:11.568Z,12.34
2022-10-27T10:31:43.630Z,12.39
2022-10-27T10:34:32.667Z,12.44
2022-10-27T10:37:01.625Z,12.50
2022-10-27T10:39:36.155Z,12.55
2022-10-27T10:42:18.418Z,12.59
2022-10-27T10:44:51.616Z,12.65
2022-10-27T10:47:28.105Z,12.68
2022-10-27T10:50:03.589Z,12.72
2022-10-27T10:52:40.118Z,12.77
2022-10-27T10:55:19.813Z,12.80
2022-10-27T10:57:48.950Z,12.84
2022-10-27T11:00:20.666Z,12.89
2022-10-27T11:03:01.712Z,12.92
2022-10-27T11:05:34.507Z,12.98
2022-10-27T11:08:04.675Z,13.01
2022-10-27T11:10:40.316Z,13.04
2022-10-27T11:13:19.726Z,13.11
2022-10-27T11:15:53.798Z,13.14
2022-10-27T11:18:27.901Z,13.19
2022-10-27T11:21:05.421Z,13.23
2022-10-27T11:23:44.892Z,13.25
2022-10-27T11:26:16.672Z,13.30
2022-10-27T11:28:58.075Z,13.34
2022-10-27T11:31:38.604Z,13.39
2022-10-27T11:34:23.135Z,13.43
2022-10-27T11:36:59.266Z,13.47
2022-10-27T11:39:34.352Z,13.52
2022-10-27T11:42:15.431Z,13.57
2022-10-27T11:44:54.354Z,13.61
2022-10-27T11:47:31.839Z,13.66
2022-10-27T11:50:07.717Z,13.71
2022-10-27T11:52:42.310Z,13.75
2022-10-27T11:55:17.220Z,13.80
2022-10-27T11:57:56.506Z,13.85
2022-10-27T12:00:29.141Z,13.90
2022-10-27T12:06:16.379Z,14.00
2022-10-27T12:08:55.949Z,14.05
2022-10-27T12:11:45.420Z,14.11
2022-10-27T12:14:27.044Z,14.17
2022-10-27T12:17:05.098Z,14.22
2022-10-27T12:19:41.059Z,14.27
2022-10-27T12:22:19.315Z,14.32
2022-10-27T12:24:58.566Z,14.37
2022-10-27T12:27:35.631Z,14.42
2022-10-27T12:30:13.552Z,14.49
2022-10-27T12:32:48.417Z,14.53
2022-10-27T12:35:25.155Z,14.58
2022-10-27T12:38:09.678Z,14.65
2022-10-27T12:40:50.656Z,14.70
2022-10-27T12:43:32.612Z,14.75
2022-10-27T12:46:24.763Z,14.82
2022-10-27T12:49:10.822Z,14.87
2022-10-27T12:51:53.524Z,14.92
2022-10-27T12:57:34.647Z,15.05
2022-10-27T13:00:12.351Z,15.13
2022-10-27T13:02:54.547Z,15.18
2022-10-27T13:05:59.630Z,15.24
2022-10-27T13:09:25.913Z,15.31
2022-10-27T13:12:40.770Z,15.37
2022-10-27T13:15:47.022Z,15.44
2022-10-27T13:18:45.773Z,15.49
2022-10-27T13:21:24.943Z,15.56
2022-10-27T13:24:09.189Z,15.62
2022-10-27T13:26:50.945Z,15.67
2022-10-27T13:29:37.864Z,15.73
2022-10-27T13:32:53.619Z,15.81
2022-10-27T13:35:40.744Z,15.91
2022-10-27T13:38:28.883Z,15.96
2022-10-27T13:40:59.798Z,16.03
2022-10-27T13:43:49.050Z,16.10
2022-10-27T13:46:21.314Z,16.15
2022-10-27T13:48:50.614Z,16.20
2022-10-27T13:51:49.082Z,16.29
2022-10-27T13:55:17.388Z,16.40
2022-10-27T13:58:23.891Z,16.45
2022-10-27T14:01:29.552Z,16.54
2022-10-27T14:04:25.952Z,16.63
2022-10-27T14:07:03.139Z,16.77
2022-10-27T14:09:38.818Z,16.97
2022-10-27T14:12:21.144Z,17.23
2022-10-27T14:14:56.106Z,17.40
2022-10-27T14:17:30.473Z,17.54
2022-10-27T14:20:04.673Z,17.57
2022-10-27T14:22:37.853Z,17.57
2022-10-27T14:25:18.262Z,17.57
2022-10-27T14:27:47.296Z,17.54
2022-10-27T14:30:20.036Z,17.53
2022-10-27T14:32:50.674Z,17.51
2022-10-27T14:35:26.849Z,17.51
2022-10-27T14:37:58.199Z,17.50
2022-10-27T14:40:39.062Z,17.48
2022-10-27T14:43:20.009Z,17.46
2022-10-27T14:45:57.678Z,17.42
2022-10-27T14:48:33.384Z,17.41
2022-10-27T14:51:13.492Z,17.41
2022-10-27T14:53:43.686Z,17.38
2022-10-27T14:56:24.249Z,17.37
2022-10-27T14:58:56.560Z,17.37
2022-10-27T15:01:34.379Z,17.34
2022-10-27T15:04:17.315Z,17.33
2022-10-27T15:06:47.461Z,17.28
2022-10-27T15:09:32.641Z,17.24
2022-10-27T15:12:06.084Z,17.21
2022-10-27T15:14:39.245Z,17.21
2022-10-27T15:17:11.046Z,17.19
2022-10-27T15:19:48.288Z,17.17
2022-10-27T15:22:19.489Z,17.14
2022-10-27T15:24:48.971Z,17.10
2022-10-27T15:27:18.170Z,17.07
2022-10-27T15:29:51.469Z,17.07
2022-10-27T15:32:28.466Z,17.03
2022-10-27T15:34:58.506Z,17.01
2022-10-27T15:37:31.395Z,16.98
2022-10-27T15:40:34.102Z,16.96
2022-10-27T15:43:04.163Z,16.94
2022-10-27T15:45:42.080Z,16.92
2022-10-27T15:48:34.971Z,16.86
2022-10-27T15:51:11.080Z,16.84
2022-10-27T15:53:49.158Z,16.80
2022-10-27T15:56:44.458Z,16.77
2022-10-27T15:59:19.234Z,16.69
2022-10-27T16:01:49.730Z,16.65
2022-10-27T16:04:41.193Z,16.65
2022-10-27T16:07:33.142Z,16.63
2022-10-27T16:10:01.730Z,16.58
2022-10-27T16:12:40.762Z,16.56
2022-10-27T16:15:21.846Z,16.54
2022-10-27T16:17:55.331Z,16.53
2022-10-27T16:20:28.224Z,16.53
2022-10-27T16:22:58.162Z,16.51
2022-10-27T16:25:30.724Z,16.51
2022-10-27T16:28:01.212Z,16.49
2022-10-27T16:30:29.679Z,16.47
2022-10-27T16:33:04.706Z,16.45
2022-10-27T16:35:34.085Z,16.43
2022-10-27T16:38:03.957Z,16.41
2022-10-27T16:40:38.181Z,16.39
2022-10-27T16:43:08.305Z,16.37
2022-10-27T16:45:38.541Z,16.33
2022-10-27T16:48:12.545Z,16.30
2022-10-27T16:50:41.379Z,16.25
2022-10-27T16:53:12.280Z,16.20
2022-10-27T16:55:41.006Z,16.16
2022-10-27T16:58:09.481Z,16.13
2022-10-27T17:00:40.151Z,16.08
2022-10-27T17:03:14.089Z,16.03
2022-10-27T17:05:47.361Z,15.99
2022-10-27T17:08:17.450Z,15.97
2022-10-27T17:10:48.772Z,15.95
2022-10-27T17:13:17.692Z,15.92
2022-10-27T17:15:46.748Z,15.88
2022-10-27T17:18:15.448Z,15.85
2022-10-27T17:20:44.262Z,15.81
2022-10-27T17:23:12.932Z,15.80
2022-10-27T17:25:43.309Z,15.77
2022-10-27T17:28:11.924Z,15.71
2022-10-27T17:30:40.462Z,15.73
2022-10-27T17:33:10.117Z,15.71
2022-10-27T17:35:39.450Z,15.69
2022-10-27T17:38:07.910Z,15.67
2022-10-27T17:40:36.485Z,15.64
2022-10-27T17:43:06.576Z,15.57
2022-10-27T17:45:36.166Z,15.48
2022-10-27T17:48:04.957Z,15.48
2022-10-27T17:50:34.332Z,15.46
2022-10-27T17:53:02.871Z,15.42
2022-10-27T17:55:31.406Z,15.38
2022-10-27T17:57:59.944Z,15.39
2022-10-27T18:00:29.840Z,15.33
2022-10-27T18:02:58.336Z,15.27
2022-10-27T18:05:28.898Z,15.24
2022-10-27T18:08:01.063Z,15.20
2022-10-27T18:10:29.639Z,15.19
2022-10-27T18:12:58.730Z,15.16
2022-10-27T18:15:36.035Z,15.13
2022-10-27T18:18:08.423Z,15.10
2022-10-27T18:20:36.875Z,15.04
2022-10-27T18:23:06.380Z,15.02
2022-10-27T18:25:34.851Z,15.02
2022-10-27T18:28:03.328Z,14.97
2022-10-27T18:30:31.782Z,14.93
2022-10-27T18:33:00.206Z,14.90
2022-10-27T18:35:30.363Z,14.87
2022-10-27T18:37:58.820Z,14.83
2022-10-27T18:40:27.224Z,14.77
2022-10-27T18:42:58.693Z,14.73
2022-10-27T18:45:31.143Z,14.69
2022-10-27T18:47:59.619Z,14.67
2022-10-27T18:50:29.531Z,14.66
2022-10-27T18:52:57.947Z,14.63
2022-10-27T18:55:26.508Z,14.55
2022-10-27T18:57:55.145Z,14.53
2022-10-27T19:00:25.259Z,14.49
2022-10-27T19:02:53.976Z,14.48
2022-10-27T19:05:23.178Z,14.38
2022-10-27T19:07:53.125Z,14.35
2022-10-27T19:10:21.636Z,14.35
2022-10-27T19:12:50.297Z,14.34
2022-10-27T19:15:19.216Z,14.34
2022-10-27T19:17:47.714Z,14.30
2022-10-27T19:20:17.437Z,14.28
2022-10-27T19:22:45.986Z,14.24
2022-10-27T19:25:16.993Z,14.25
2022-10-27T19:27:45.500Z,14.18
2022-10-27T19:30:14.807Z,14.16
2022-10-27T19:32:44.558Z,14.11
2022-10-27T19:35:13.106Z,14.09
2022-10-27T19:37:41.682Z,14.01
2022-10-27T19:40:11.885Z,14.00
2022-10-27T19:42:41.876Z,13.96
2022-10-27T19:45:11.180Z,13.98
2022-10-27T19:47:39.678Z,13.91
2022-10-27T19:50:09.592Z,13.85
2022-10-27T19:52:38.582Z,13.82
2022-10-27T19:55:08.510Z,13.83
2022-10-27T19:57:37.471Z,13.79
2022-10-27T20:00:08.779Z,13.73
2022-10-27T20:02:37.407Z,13.69
2022-10-27T20:05:06.626Z,13.69
2022-10-27T20:07:36.755Z,13.69
2022-10-27T20:10:05.541Z,13.68
2022-10-27T20:12:34.042Z,13.63
2022-10-27T20:15:02.505Z,13.56
2022-10-27T20:17:32.325Z,13.56
2022-10-27T20:20:01.172Z,13.55
2022-10-27T20:22:29.679Z,13.54
2022-10-27T20:24:58.169Z,13.54
2022-10-27T20:27:29.073Z,13.50
2022-10-27T20:29:57.598Z,13.49
2022-10-27T20:32:26.118Z,13.49
2022-10-27T20:34:56.050Z,13.44
2022-10-27T20:37:24.571Z,13.38
2022-10-27T20:39:53.067Z,13.36
2022-10-27T20:42:21.593Z,13.36
2022-10-27T20:44:50.207Z,13.26
2022-10-27T20:47:18.728Z,13.21
2022-10-27T20:49:47.197Z,13.14
2022-10-27T20:52:18.000Z,13.21
2022-10-27T20:54:46.485Z,13.19
2022-10-27T20:57:15.028Z,13.20
2022-10-27T20:59:44.136Z,13.08
2022-10-27T21:02:12.842Z,13.10
2022-10-27T21:04:42.202Z,13.13
2022-10-27T21:07:10.675Z,13.14
2022-10-27T21:09:40.513Z,13.10
2022-10-27T21:12:09.523Z,13.08
2022-10-27T21:14:37.987Z,13.05
2022-10-27T21:17:06.914Z,13.04
2022-10-27T21:19:35.959Z,13.06
2022-10-27T21:22:05.887Z,13.07
2022-10-27T21:24:35.167Z,13.10
2022-10-27T21:27:05.142Z,13.08
2022-10-27T21:29:33.771Z,13.06
2022-10-27T21:32:03.024Z,13.05
2022-10-27T21:34:31.822Z,13.04
2022-10-27T21:37:00.852Z,13.00
2022-10-27T21:39:30.258Z,13.02
2022-10-27T21:41:59.497Z,13.01
2022-10-27T21:44:29.861Z,13.00
2022-10-27T21:46:58.410Z,13.01
2022-10-27T21:49:27.787Z,13.03
2022-10-27T21:51:56.509Z,13.03
2022-10-27T21:54:25.622Z,13.04
2022-10-27T21:56:54.143Z,13.04
2022-10-27T21:59:22.610Z,13.03
2022-10-27T22:01:52.617Z,13.04
2022-10-27T22:04:23.689Z,13.05
2022-10-27T22:06:53.183Z,13.03
2022-10-27T22:09:23.719Z,13.03
2022-10-27T22:11:52.324Z,13.00
2022-10-27T22:14:21.613Z,12.99
2022-10-27T22:16:51.941Z,12.99
2022-10-27T22:19:22.185Z,13.01
2022-10-27T22:21:50.754Z,13.02
2022-10-27T22:24:19.464Z,12.99
2022-10-27T22:26:47.944Z,12.99
2022-10-27T22:29:16.963Z,12.97
2022-10-27T22:31:45.652Z,13.01
2022-10-27T22:34:15.786Z,13.00
